McKinnon, Wyoming
Current Conditions -  °F | °C
As of 12:55 AM on Tuesday 21 Oct 2014 (Local Time) from KFBR Reporting Station
Overcast Overcast  
Wind Chill: 54°   Ceiling: 10000
Heat Index: 54°   Visibility: NA
Dew Point: 34°   Wind: 10mph
Humidity: 47%   Direction: 200°SSW
Pressure: 30.09"   Gusts: NA
Location:  41.03°N, 109.94°W
Report Text: KFBR 210655Z AUTO 20009KT OVC100 12/01 A3009 RMK AO2 T01220012 PWINO
Loading
Personal Weather Stations






























Interactive Weather Map
Tropical Storm Tracking
New forecast layout! Learn more

10-Day Weather Forecast

Advertisements
Track Severe Weather on mobile